Time;durP1;ratioP1;P1;durP2;ratioP2;P2;SDS_P1;SDS_P2;PMS_P1;PMS_P2;Temp;Humidity;BMP_temperature;BMP_pressure;BME280_temperature;BME280_humidity;BME280_pressure;Samples;Min_cycle;Max_cycle;Signal;HPM_P1;HPM_P2
2021/07/07 00:01:16;;;;;;;;;;;;;;;26.30;48.97;100981.63;5002841;28;96927;-83
2021/07/07 00:03:44;;;;;;;;;;;;;;;26.23;48.43;100980.47;5013805;28;96624;-85
2021/07/07 00:06:13;;;;;;;;;;;;;;;26.32;48.39;100988.56;5011201;28;101291;-85
2021/07/07 00:08:47;;;;;;;;;;;;;;;26.25;48.57;100997.47;4997786;28;99083;-84
2021/07/07 00:11:19;;;;;;;;;;;;;;;26.34;48.07;101002.81;4998632;28;96710;-84
2021/07/07 00:16:29;;;;;;;;;;;;;;;26.44;48.02;101025.31;5019264;28;97640;-84
2021/07/07 00:21:59;;;;;;;;;;;;;;;26.32;48.01;101047.34;5016447;28;96595;-83
2021/07/07 00:24:26;;;;;;;;;;;;;;;26.38;48.44;101047.59;5015284;28;96059;-85
2021/07/07 00:27:01;;;;;;;;;;;;;;;26.30;48.54;101055.63;5021382;28;97776;-83
2021/07/07 00:29:27;;;;;;;;;;;;;;;26.18;49.17;101054.06;5022176;28;96916;-86
2021/07/07 00:31:54;;;;;;;;;;;;;;;26.45;49.58;101047.84;5022936;28;95934;-86
2021/07/07 00:34:20;;;;;;;;;;;;;;;26.30;49.47;101041.22;5023450;28;96085;-85
2021/07/07 00:36:48;;;;;;;;;;;;;;;25.73;51.40;101046.59;5011777;28;99895;-85
2021/07/07 00:39:15;;;;;;;;;;;;;;;26.14;50.46;101044.50;5006863;28;98866;-83
2021/07/07 00:41:44;;;;;;;;;;;;;;;26.06;50.56;101036.25;5011163;28;96748;-86
2021/07/07 00:44:21;;;;;;;;;;;;;;;25.94;50.65;101041.00;4994955;28;99284;-86
2021/07/07 00:46:47;;;;;;;;;;;;;;;25.70;50.51;101041.47;4998475;28;98899;-85
2021/07/07 00:49:16;;;;;;;;;;;;;;;25.94;50.54;101046.41;5010069;28;98763;-86
2021/07/07 00:54:21;;;;;;;;;;;;;;;25.82;51.02;101050.28;5608931;22;99764;-85
2021/07/07 00:56:49;;;;;;;;;;;;;;;25.58;51.19;101047.19;5011940;28;99900;-86
2021/07/07 00:59:22;;;;;;;;;;;;;;;25.69;51.31;101045.19;5029415;28;100261;-85
2021/07/07 01:01:49;;;;;;;;;;;;;;;25.75;51.42;101050.00;5026363;28;96840;-85
2021/07/07 01:04:20;;;;;;;;;;;;;;;25.55;51.71;101047.44;5025100;28;97156;-85
2021/07/07 01:06:50;;;;;;;;;;;;;;;25.74;52.35;101037.47;5003689;28;98375;-85
2021/07/07 01:09:17;;;;;;;;;;;;;;;25.75;52.24;101032.91;5025740;28;97808;-86
2021/07/07 01:11:43;;;;;;;;;;;;;;;25.25;52.72;101040.31;5021809;28;97550;-86
2021/07/07 01:14:13;;;;;;;;;;;;;;;25.73;52.10;101041.16;5006706;28;97162;-86
2021/07/07 01:16:49;;;;;;;;;;;;;;;25.37;52.34;101040.03;5021473;28;101032;-86
2021/07/07 01:19:26;;;;;;;;;;;;;;;25.67;51.98;101038.19;5026637;28;100233;-86
2021/07/07 01:21:54;;;;;;;;;;;;;;;25.69;52.84;101036.19;5041505;27;95943;-85
2021/07/07 01:24:22;;;;;;;;;;;;;;;25.81;53.33;101026.91;5023509;27;96595;-85
2021/07/07 01:26:49;;;;;;;;;;;;;;;25.09;55.26;101035.47;5021656;28;99205;-86
2021/07/07 01:29:18;;;;;;;;;;;;;;;25.36;54.39;101037.47;5022594;28;99189;-84
2021/07/07 01:31:45;;;;;;;;;;;;;;;25.33;55.21;101041.34;5022797;28;96725;-85
2021/07/07 01:34:12;;;;;;;;;;;;;;;25.33;54.93;101041.34;5006698;28;96858;-86
2021/07/07 01:36:39;;;;;;;;;;;;;;;25.23;55.00;101042.31;5013877;28;98027;-86
2021/07/07 01:39:11;;;;;;;;;;;;;;;25.17;55.08;101053.69;5016834;28;100236;-86
2021/07/07 01:41:38;;;;;;;;;;;;;;;25.12;55.25;101061.38;5021715;28;96624;-86
2021/07/07 01:44:06;;;;;;;;;;;;;;;25.46;54.60;101054.56;5023257;28;96738;-86
2021/07/07 01:46:33;;;;;;;;;;;;;;;25.38;54.74;101051.72;5021552;28;99359;-86
2021/07/07 01:49:01;;;;;;;;;;;;;;;25.11;55.30;101060.53;5025923;28;97713;-86
2021/07/07 01:51:27;;;;;;;;;;;;;;;25.35;54.68;101058.25;5027109;28;96701;-86
2021/07/07 01:53:59;;;;;;;;;;;;;;;25.38;54.63;101067.94;5024414;28;96856;-86
2021/07/07 01:56:27;;;;;;;;;;;;;;;25.34;55.17;101066.50;5022133;28;99260;-86
2021/07/07 01:58:54;;;;;;;;;;;;;;;25.06;56.07;101065.50;5021552;28;98940;-86
2021/07/07 02:01:22;;;;;;;;;;;;;;;25.09;56.04;101072.47;5037899;27;96510;-86
2021/07/07 02:03:48;;;;;;;;;;;;;;;25.14;55.95;101064.81;5034977;27;97392;-84
2021/07/07 02:06:15;;;;;;;;;;;;;;;25.16;56.39;101068.19;5036015;27;100496;-84
2021/07/07 02:11:31;;;;;;;;;;;;;;;25.18;55.97;101075.19;5041166;27;97152;-86
2021/07/07 02:13:58;;;;;;;;;;;;;;;25.37;55.41;101067.09;5041537;27;96378;-85
2021/07/07 02:16:31;;;;;;;;;;;;;;;25.19;56.47;101066.09;5041540;27;96896;-87
2021/07/07 02:19:00;;;;;;;;;;;;;;;25.01;57.03;101081.25;5037079;27;98099;-86
2021/07/07 02:21:30;;;;;;;;;;;;;;;25.16;56.33;101085.28;5020344;28;96727;-86
2021/07/07 02:23:57;;;;;;;;;;;;;;;24.96;56.51;101095.22;5002472;28;96922;-86
2021/07/07 02:26:24;;;;;;;;;;;;;;;24.95;57.38;101092.63;5025712;28;100470;-86
2021/07/07 02:28:53;;;;;;;;;;;;;;;24.88;56.98;101100.41;5001533;28;98480;-86
2021/07/07 02:31:19;;;;;;;;;;;;;;;24.68;56.11;101095.94;5014142;28;96637;-87
2021/07/07 02:33:46;;;;;;;;;;;;;;;24.87;56.30;101096.03;5021963;28;96841;-86
2021/07/07 02:36:14;;;;;;;;;;;;;;;24.91;56.19;101105.59;5011436;28;97808;-87
2021/07/07 02:38:40;;;;;;;;;;;;;;;24.78;57.39;101113.06;5031939;27;100166;-86
2021/07/07 02:41:10;;;;;;;;;;;;;;;24.82;57.55;101119.88;5040329;27;95910;-87
2021/07/07 02:43:41;;;;;;;;;;;;;;;24.98;56.80;101109.44;5014287;28;96851;-87
2021/07/07 02:46:09;;;;;;;;;;;;;;;25.01;57.28;101105.59;5011611;28;99885;-87
2021/07/07 02:48:36;;;;;;;;;;;;;;;25.04;56.82;101108.03;5025347;27;99036;-87
2021/07/07 02:51:05;;;;;;;;;;;;;;;24.86;57.03;101110.53;5021038;28;97439;-86
2021/07/07 02:53:39;;;;;;;;;;;;;;;24.82;57.25;101114.47;5012116;28;97698;-86
2021/07/07 02:56:06;;;;;;;;;;;;;;;24.58;57.30;101100.44;5010996;28;99962;-86
2021/07/07 02:58:34;;;;;;;;;;;;;;;24.90;56.28;101084.09;5027478;28;99246;-86
2021/07/07 03:01:01;;;;;;;;;;;;;;;25.02;54.76;101078.44;5018148;27;96664;-85
2021/07/07 03:03:29;;;;;;;;;;;;;;;24.91;55.41;101075.84;5028269;27;96015;-86
2021/07/07 03:05:57;;;;;;;;;;;;;;;24.80;57.00;101085.91;5038772;27;98448;-86
2021/07/07 03:11:07;;;;;;;;;;;;;;;24.70;56.82;101072.34;5040033;28;96081;-86
2021/07/07 03:13:34;;;;;;;;;;;;;;;24.81;56.63;101074.91;5035744;28;96926;-86
2021/07/07 03:16:02;;;;;;;;;;;;;;;24.48;59.26;101084.19;5020639;28;99359;-85
2021/07/07 03:21:12;;;;;;;;;;;;;;;24.42;59.54;101084.72;5023923;28;96791;-85
2021/07/07 03:23:39;;;;;;;;;;;;;;;24.61;59.44;101078.59;5019228;28;96750;-85
2021/07/07 03:26:13;;;;;;;;;;;;;;;24.68;59.17;101063.50;5021657;28;101859;-85
2021/07/07 03:31:21;;;;;;;;;;;;;;;24.62;59.25;101047.84;5033268;27;96010;-86
2021/07/07 03:36:37;;;;;;;;;;;;;;;24.36;60.24;101095.22;5043685;27;99082;-85
2021/07/07 03:39:10;;;;;;;;;;;;;;;24.52;60.28;101106.41;5042858;27;97192;-85
2021/07/07 03:41:39;;;;;;;;;;;;;;;24.58;59.31;101106.72;5035724;27;95913;-85
2021/07/07 03:44:07;;;;;;;;;;;;;;;24.36;59.68;101111.41;5026296;27;97620;-85
2021/07/07 03:46:35;;;;;;;;;;;;;;;24.45;59.39;101116.03;5043159;27;99525;-85
2021/07/07 03:49:08;;;;;;;;;;;;;;;24.56;59.14;101124.91;5037269;28;100208;-86
2021/07/07 03:51:35;;;;;;;;;;;;;;;24.57;58.71;101129.31;5024105;28;96555;-87
2021/07/07 03:54:03;;;;;;;;;;;;;;;24.47;58.93;101130.28;5034586;28;96615;-88
2021/07/07 03:56:32;;;;;;;;;;;;;;;24.48;58.61;101123.88;5029646;28;98413;-87
2021/07/07 03:58:58;;;;;;;;;;;;;;;24.15;59.76;101131.19;5026304;28;97965;-85
2021/07/07 04:01:25;;;;;;;;;;;;;;;24.43;59.25;101134.22;5006204;28;96684;-86
2021/07/07 04:03:53;;;;;;;;;;;;;;;24.48;58.83;101138.22;5016396;28;96754;-85
2021/07/07 04:06:21;;;;;;;;;;;;;;;24.28;59.02;101132.88;5021976;28;101224;-85
2021/07/07 04:08:49;;;;;;;;;;;;;;;24.42;58.49;101124.38;5022516;28;99231;-85
2021/07/07 04:11:16;;;;;;;;;;;;;;;24.49;58.93;101129.13;5026452;28;96825;-86
2021/07/07 04:13:45;;;;;;;;;;;;;;;24.07;59.35;101136.38;5025316;28;97406;-85
2021/07/07 04:16:12;;;;;;;;;;;;;;;24.36;57.86;101135.72;5005419;28;99086;-86
2021/07/07 04:18:39;;;;;;;;;;;;;;;24.50;58.72;101127.28;5004801;28;97874;-86
2021/07/07 04:23:58;;;;;;;;;;;;;;;24.33;58.80;101125.22;5006471;28;96802;-85
2021/07/07 04:26:26;;;;;;;;;;;;;;;23.95;59.81;101106.91;5025425;28;96837;-85
2021/07/07 04:28:53;;;;;;;;;;;;;;;24.18;59.71;101101.22;5023196;28;96775;-85
2021/07/07 04:31:21;;;;;;;;;;;;;;;24.24;59.09;101124.16;5025855;28;96783;-85
2021/07/07 04:33:54;;;;;;;;;;;;;;;24.30;60.47;101149.75;5025210;28;96897;-87
2021/07/07 04:36:20;;;;;;;;;;;;;;;24.50;60.25;101143.50;5022311;28;100640;-87
2021/07/07 04:38:50;;;;;;;;;;;;;;;24.63;59.02;101144.97;5036282;28;99744;-85
2021/07/07 04:41:20;;;;;;;;;;;;;;;24.40;59.42;101135.34;5032479;28;96876;-87
2021/07/07 04:43:48;;;;;;;;;;;;;;;24.32;60.16;101153.19;5016125;27;97904;-85
2021/07/07 04:46:18;;;;;;;;;;;;;;;24.29;59.98;101162.41;5041483;27;97879;-86
2021/07/07 04:48:45;;;;;;;;;;;;;;;24.41;60.42;101152.41;5030759;27;99074;-86
2021/07/07 04:51:12;;;;;;;;;;;;;;;24.31;60.80;101148.78;5011007;28;96848;-86
2021/07/07 04:53:39;;;;;;;;;;;;;;;24.52;59.71;101157.72;5022536;28;97330;-86
2021/07/07 04:56:08;;;;;;;;;;;;;;;24.57;59.34;101164.44;4999062;28;98899;-84
2021/07/07 04:58:34;;;;;;;;;;;;;;;24.72;58.69;101167.66;5022904;28;98970;-84
2021/07/07 05:01:01;;;;;;;;;;;;;;;24.78;58.61;101166.25;5018350;28;96863;-85
2021/07/07 05:03:28;;;;;;;;;;;;;;;24.57;59.37;101179.78;5024099;28;97165;-85
2021/07/07 05:05:57;;;;;;;;;;;;;;;24.40;60.07;101194.78;5025610;28;99187;-85
2021/07/07 05:08:29;;;;;;;;;;;;;;;24.25;60.53;101206.88;5024545;28;96773;-87
2021/07/07 05:10:56;;;;;;;;;;;;;;;24.31;60.35;101205.50;5028841;28;96872;-88
2021/07/07 05:13:27;;;;;;;;;;;;;;;24.25;59.78;101227.63;5029600;28;96692;-87
2021/07/07 05:16:06;;;;;;;;;;;;;;;24.34;59.44;101240.34;5027629;28;98939;-88
2021/07/07 05:18:35;;;;;;;;;;;;;;;24.40;59.85;101256.03;5027038;28;100626;-87
2021/07/07 05:21:02;;;;;;;;;;;;;;;24.50;59.26;101252.41;5025443;28;96677;-88
2021/07/07 05:23:33;;;;;;;;;;;;;;;24.42;59.68;101271.09;5029524;28;96774;-86
2021/07/07 05:26:02;;;;;;;;;;;;;;;24.36;60.00;101285.13;5022548;28;97113;-86
2021/07/07 05:28:30;;;;;;;;;;;;;;;24.35;59.54;101288.81;5029380;28;100804;-85
2021/07/07 05:31:03;;;;;;;;;;;;;;;24.51;59.11;101291.94;5040923;27;97726;-84
2021/07/07 05:33:34;;;;;;;;;;;;;;;24.53;58.69;101297.22;5027342;27;95950;-83
2021/07/07 05:36:01;;;;;;;;;;;;;;;24.31;59.52;101291.91;5040524;27;99231;-85
2021/07/07 05:38:28;;;;;;;;;;;;;;;24.41;59.13;101280.22;5042257;27;96524;-85
2021/07/07 05:40:55;;;;;;;;;;;;;;;24.48;58.44;101285.97;5025035;27;95960;-84
2021/07/07 05:43:22;;;;;;;;;;;;;;;24.61;58.44;101294.72;5029654;27;96124;-85
2021/07/07 05:45:51;;;;;;;;;;;;;;;24.41;58.89;101292.88;5041394;27;99714;-82
2021/07/07 05:48:20;;;;;;;;;;;;;;;24.55;57.81;101289.81;5041865;27;98088;-82
2021/07/07 05:50:48;;;;;;;;;;;;;;;24.52;57.98;101284.69;5039220;28;96725;-89
2021/07/07 05:53:15;;;;;;;;;;;;;;;24.21;59.13;101287.31;5015248;28;96657;-85
2021/07/07 05:55:42;;;;;;;;;;;;;;;24.31;59.36;101286.50;5030542;28;99297;-85
2021/07/07 05:58:11;;;;;;;;;;;;;;;24.31;58.83;101281.09;5010158;28;97958;-85
2021/07/07 06:00:41;;;;;;;;;;;;;;;24.38;59.06;101287.72;5017265;28;96833;-85
2021/07/07 06:03:15;;;;;;;;;;;;;;;24.56;58.31;101281.59;5020942;28;96582;-87
2021/07/07 06:05:41;;;;;;;;;;;;;;;24.52;58.20;101276.59;5025440;28;96902;-85
2021/07/07 06:08:08;;;;;;;;;;;;;;;24.24;59.06;101283.47;5023856;28;101418;-85
2021/07/07 06:10:35;;;;;;;;;;;;;;;24.44;59.25;101287.19;5022534;28;96809;-84
2021/07/07 06:13:02;;;;;;;;;;;;;;;24.33;58.87;101300.75;5025267;27;96789;-84
2021/07/07 06:15:32;;;;;;;;;;;;;;;24.33;58.61;101306.16;5018248;28;97954;-85
2021/07/07 06:17:59;;;;;;;;;;;;;;;24.35;58.48;101306.88;5017123;28;99579;-84
2021/07/07 06:20:27;;;;;;;;;;;;;;;23.94;58.24;101300.38;5018045;28;96793;-85
2021/07/07 06:22:56;;;;;;;;;;;;;;;24.08;58.08;101307.31;5024307;28;96841;-87
2021/07/07 06:25:22;;;;;;;;;;;;;;;23.90;58.84;101320.47;5024172;28;99866;-85
2021/07/07 06:27:55;;;;;;;;;;;;;;;23.82;59.12;101321.13;5022143;28;99971;-86
2021/07/07 06:30:25;;;;;;;;;;;;;;;23.94;58.35;101321.97;5006661;28;96791;-87
2021/07/07 06:32:52;;;;;;;;;;;;;;;23.98;58.86;101322.56;5017090;28;97468;-86
2021/07/07 06:35:22;;;;;;;;;;;;;;;24.00;58.73;101310.66;5021095;28;100507;-86
2021/07/07 06:37:59;;;;;;;;;;;;;;;24.15;58.72;101320.19;5020076;28;96799;-90
2021/07/07 06:40:29;;;;;;;;;;;;;;;24.28;58.14;101319.19;5020891;28;97541;-88
2021/07/07 06:45:40;;;;;;;;;;;;;;;24.32;58.63;101315.22;5022491;28;97389;-89
2021/07/07 06:48:07;;;;;;;;;;;;;;;24.41;58.30;101320.72;5026956;28;97065;-89
2021/07/07 06:50:40;;;;;;;;;;;;;;;24.24;58.40;101323.97;5030594;27;96983;-86
2021/07/07 06:53:25;;;;;;;;;;;;;;;24.12;58.99;101339.34;5037764;28;96780;-87
2021/07/07 06:55:55;;;;;;;;;;;;;;;24.33;58.32;101349.38;5023287;28;99321;-87
2021/07/07 07:01:02;;;;;;;;;;;;;;;24.34;57.27;101351.94;5024220;28;96951;-88
2021/07/07 07:03:31;;;;;;;;;;;;;;;24.43;57.01;101348.44;5017040;28;98263;-88
2021/07/07 07:06:00;;;;;;;;;;;;;;;24.35;57.90;101339.31;5020906;28;100266;-88
2021/07/07 07:08:27;;;;;;;;;;;;;;;24.38;57.60;101334.47;5021727;28;101217;-87
2021/07/07 07:10:55;;;;;;;;;;;;;;;24.39;56.63;101340.75;5023384;28;98584;-87
2021/07/07 07:13:22;;;;;;;;;;;;;;;24.46;57.30;101331.16;5014916;28;98001;-87
2021/07/07 07:15:52;;;;;;;;;;;;;;;24.34;57.77;101337.59;5020615;28;97593;-88
2021/07/07 07:18:20;;;;;;;;;;;;;;;24.43;57.71;101340.34;5030266;28;99960;-89
2021/07/07 07:20:47;;;;;;;;;;;;;;;24.19;58.26;101354.06;5026259;28;96708;-91
2021/07/07 07:23:14;;;;;;;;;;;;;;;24.22;59.52;101364.59;5023967;28;97257;-88
2021/07/07 07:31:06;;;;;;;;;;;;;;;24.18;59.52;101400.06;5025771;28;96862;-90
2021/07/07 07:33:33;;;;;;;;;;;;;;;24.28;58.81;101405.59;5025908;28;97083;-89
2021/07/07 07:36:07;;;;;;;;;;;;;;;24.41;58.99;101400.91;5256563;22;101097;-89
2021/07/07 07:44:18;;;;;;;;;;;;;;;24.58;57.11;101408.44;5028803;28;96970;-88
2021/07/07 07:46:45;;;;;;;;;;;;;;;24.37;56.75;101399.44;5026824;28;96856;-88
2021/07/07 07:51:56;;;;;;;;;;;;;;;24.27;57.30;101403.88;5016201;28;97873;-88
2021/07/07 07:54:23;;;;;;;;;;;;;;;24.41;57.76;101398.22;5030948;28;96974;-88
2021/07/07 07:56:53;;;;;;;;;;;;;;;24.84;55.92;101392.72;5035427;28;98073;-87
2021/07/07 08:02:07;;;;;;;;;;;;;;;24.96;55.30;101384.47;5032270;27;96897;-88
2021/07/07 08:04:37;;;;;;;;;;;;;;;24.96;55.45;101370.94;5042949;27;95988;-88
2021/07/07 08:07:12;;;;;;;;;;;;;;;24.70;56.93;101371.44;5042983;27;99044;-85
2021/07/07 08:09:46;;;;;;;;;;;;;;;24.62;57.86;101372.06;5046527;27;98651;-86
2021/07/07 08:12:13;;;;;;;;;;;;;;;24.74;57.12;101378.31;5051897;27;98058;-85
2021/07/07 08:14:56;;;;;;;;;;;;;;;24.72;57.72;101373.03;5047676;27;96068;-88
2021/07/07 08:17:26;;;;;;;;;;;;;;;24.53;57.46;101378.25;5053823;27;100328;-86
2021/07/07 08:19:53;;;;;;;;;;;;;;;24.61;57.52;101387.41;5061221;27;96970;-85
2021/07/07 08:22:20;;;;;;;;;;;;;;;24.51;56.53;101396.44;5036005;27;95955;-87
2021/07/07 08:24:47;;;;;;;;;;;;;;;24.62;56.90;101404.50;5033870;27;95995;-86
2021/07/07 08:27:14;;;;;;;;;;;;;;;24.61;58.19;101422.53;5044061;27;98098;-88
2021/07/07 08:29:44;;;;;;;;;;;;;;;24.18;59.27;101432.47;5039301;27;96855;-85
2021/07/07 08:32:14;;;;;;;;;;;;;;;24.41;58.52;101438.72;5047151;27;96083;-87
2021/07/07 08:34:51;;;;;;;;;;;;;;;24.46;58.55;101440.06;5041518;27;96148;-88
2021/07/07 08:39:58;;;;;;;;;;;;;;;24.37;58.51;101434.53;5037110;27;96856;-87
2021/07/07 08:50:34;;;;;;;;;;;;;;;24.61;56.78;101414.44;5039699;27;98822;-89
2021/07/07 08:53:13;;;;;;;;;;;;;;;24.85;55.21;101408.81;5034041;27;95893;-86
2021/07/07 08:55:52;;;;;;;;;;;;;;;24.93;54.58;101410.91;5023529;27;96214;-84
2021/07/07 08:58:20;;;;;;;;;;;;;;;24.80;55.08;101427.28;5042214;27;98542;-85
2021/07/07 09:00:47;;;;;;;;;;;;;;;24.99;54.99;101429.31;5043173;27;97146;-87
2021/07/07 09:03:22;;;;;;;;;;;;;;;24.97;54.98;101429.44;5124858;22;97599;-85
2021/07/07 09:05:56;;;;;;;;;;;;;;;25.10;53.92;101433.78;5062342;27;97061;-85
2021/07/07 09:11:15;;;;;;;;;;;;;;;25.08;53.92;101452.00;5053517;27;99070;-90
2021/07/07 09:16:31;;;;;;;;;;;;;;;24.84;55.69;101474.69;5035960;28;97804;-89
2021/07/07 09:19:02;;;;;;;;;;;;;;;24.67;56.99;101480.66;5047921;28;101450;-88
2021/07/07 09:21:47;;;;;;;;;;;;;;;24.62;56.49;101491.81;5044292;27;98470;-89
2021/07/07 09:24:21;;;;;;;;;;;;;;;24.98;56.20;101504.16;5044340;28;96810;-91
2021/07/07 09:32:31;;;;;;;;;;;;;;;24.76;56.51;101525.81;5043703;27;98505;-86
2021/07/07 09:34:59;;;;;;;;;;;;;;;24.46;57.96;101533.75;5047157;28;96939;-88
2021/07/07 09:37:39;;;;;;;;;;;;;;;24.41;57.65;101528.72;5046066;28;96972;-87
2021/07/07 09:42:47;;;;;;;;;;;;;;;23.49;58.97;101545.03;5043695;27;99793;-90
2021/07/07 09:45:18;;;;;;;;;;;;;;;23.69;58.18;101548.91;5042175;28;96774;-88
2021/07/07 09:47:47;;;;;;;;;;;;;;;23.69;59.41;101555.16;5043457;27;96853;-87
2021/07/07 09:50:15;;;;;;;;;;;;;;;;;;5036775;28;98923;-87
2021/07/07 09:52:45;;;;;;;;;;;;;;;23.45;57.92;101567.78;5045305;27;98061;-88
2021/07/07 09:55:13;;;;;;;;;;;;;;;23.41;58.40;101563.63;5042969;27;97221;-88
2021/07/07 09:57:46;;;;;;;;;;;;;;;23.36;57.47;101561.28;5047417;27;96764;-88
2021/07/07 10:02:57;;;;;;;;;;;;;;;24.08;55.79;101553.88;5044644;27;99932;-87
2021/07/07 10:05:24;;;;;;;;;;;;;;;24.33;56.10;101562.72;5040939;28;96717;-87
2021/07/07 10:07:59;;;;;;;;;;;;;;;24.49;56.29;101565.91;5046253;27;97523;-87
2021/07/07 10:13:10;;;;;;;;;;;;;;;24.41;54.91;101553.03;5041396;27;98417;-87
2021/07/07 10:15:39;;;;;;;;;;;;;;;24.91;54.49;101554.31;5041826;27;96661;-87
2021/07/07 10:18:12;;;;;;;;;;;;;;;25.05;52.85;101553.16;5036857;27;96755;-87
2021/07/07 10:20:43;;;;;;;;;;;;;;;25.24;52.05;101547.94;5043436;27;98175;-87
2021/07/07 10:23:14;;;;;;;;;;;;;;;25.17;53.47;101543.16;5047394;27;100202;-86
2021/07/07 10:25:44;;;;;;;;;;;;;;;25.34;52.16;101539.88;5053026;27;96621;-87
2021/07/07 10:28:15;;;;;;;;;;;;;;;25.62;51.93;101549.25;5059350;27;96628;-88
2021/07/07 10:30:48;;;;;;;;;;;;;;;25.65;52.02;101557.97;5057308;27;97892;-88
2021/07/07 10:33:17;;;;;;;;;;;;;;;25.72;51.93;101547.47;5047794;27;98822;-88
2021/07/07 10:35:52;;;;;;;;;;;;;;;25.53;52.22;101548.16;5055649;27;96711;-86
2021/07/07 10:38:35;;;;;;;;;;;;;;;25.61;51.02;101537.56;5060339;27;96645;-88
2021/07/07 10:41:09;;;;;;;;;;;;;;;25.47;51.90;101537.00;5059219;27;96417;-88
2021/07/07 10:43:45;;;;;;;;;;;;;;;25.55;51.21;101526.38;5050963;27;97502;-84
2021/07/07 10:46:41;;;;;;;;;;;;;;;25.14;52.49;101529.91;5054732;27;98360;-83
2021/07/07 10:49:26;;;;;;;;;;;;;;;25.17;51.29;101540.47;5055625;27;96196;-86
2021/07/07 10:51:57;;;;;;;;;;;;;;;25.45;51.75;101547.97;5059345;27;99155;-87
2021/07/07 10:54:27;;;;;;;;;;;;;;;25.74;50.73;101557.16;5051902;27;99987;-84
2021/07/07 10:57:07;;;;;;;;;;;;;;;25.90;50.81;101562.13;5057289;27;97710;-85
2021/07/07 10:59:35;;;;;;;;;;;;;;;25.72;51.09;101550.19;5050808;27;96224;-84
2021/07/07 11:02:07;;;;;;;;;;;;;;;25.83;49.06;101560.94;5060281;27;96915;-85
2021/07/07 11:04:35;;;;;;;;;;;;;;;25.64;49.87;101560.81;5045841;27;96861;-85
2021/07/07 11:07:18;;;;;;;;;;;;;;;26.17;49.34;101556.13;5052602;27;96500;-86
2021/07/07 11:09:52;;;;;;;;;;;;;;;26.25;48.46;101550.94;5041215;28;96864;-88
2021/07/07 11:12:22;;;;;;;;;;;;;;;26.37;47.56;101541.69;5055679;28;97872;-86
2021/07/07 11:15:00;;;;;;;;;;;;;;;26.28;46.64;101541.66;5051987;28;96590;-86
2021/07/07 11:17:33;;;;;;;;;;;;;;;26.43;46.04;101535.72;5050373;28;96680;-88
2021/07/07 11:20:00;;;;;;;;;;;;;;;26.85;45.30;101532.81;5047017;28;98055;-89
2021/07/07 11:22:28;;;;;;;;;;;;;;;26.84;44.66;101533.84;5054889;27;98336;-88
2021/07/07 11:25:03;;;;;;;;;;;;;;;27.24;44.49;101542.72;5058984;27;98022;-87
2021/07/07 11:30:24;;;;;;;;;;;;;;;27.66;44.08;101539.72;5051730;28;96483;-88
2021/07/07 11:35:40;;;;;;;;;;;;;;;27.84;43.82;101553.41;5051395;27;98903;-87
2021/07/07 11:38:12;;;;;;;;;;;;;;;28.09;43.63;101545.47;5053389;27;96762;-87
2021/07/07 11:40:41;;;;;;;;;;;;;;;28.30;42.80;101547.13;5058678;28;96888;-86
2021/07/07 11:43:14;;;;;;;;;;;;;;;28.21;43.60;101548.91;5059852;27;98232;-87
2021/07/07 11:45:46;;;;;;;;;;;;;;;28.51;41.67;101556.75;5051671;28;97762;-86
2021/07/07 11:48:17;;;;;;;;;;;;;;;27.96;43.07;101558.50;5056104;28;96313;-87
2021/07/07 11:50:47;;;;;;;;;;;;;;;28.21;42.62;101562.50;5057012;28;96429;-86
2021/07/07 11:56:00;;;;;;;;;;;;;;;28.02;43.03;101571.53;5044827;27;97430;-89
2021/07/07 11:58:34;;;;;;;;;;;;;;;28.43;42.25;101569.38;5043745;28;96623;-88
2021/07/07 12:01:03;;;;;;;;;;;;;;;28.78;41.56;101550.50;5046255;27;96868;-88
2021/07/07 12:03:40;;;;;;;;;;;;;;;28.72;41.64;101544.78;5041545;28;98224;-87
2021/07/07 12:06:14;;;;;;;;;;;;;;;28.73;41.54;101552.78;5056719;27;98251;-86
2021/07/07 12:08:41;;;;;;;;;;;;;;;28.59;41.63;101557.88;5060787;27;97778;-83
2021/07/07 12:11:10;;;;;;;;;;;;;;;28.53;41.76;101541.16;5061477;27;97809;-85
2021/07/07 12:13:40;;;;;;;;;;;;;;;28.04;41.80;101527.91;5062920;27;99854;-86
2021/07/07 12:16:13;;;;;;;;;;;;;;;28.52;39.83;101516.84;5053446;27;99263;-84
2021/07/07 12:18:41;;;;;;;;;;;;;;;28.73;39.58;101508.41;5063054;27;96456;-85
2021/07/07 12:21:09;;;;;;;;;;;;;;;28.25;41.65;101500.53;5063677;27;96121;-86
2021/07/07 12:23:46;;;;;;;;;;;;;;;28.43;41.25;101526.75;5062071;27;97828;-84
2021/07/07 12:26:18;;;;;;;;;;;;;;;28.77;40.43;101537.91;5063825;27;99216;-87
2021/07/07 12:31:28;;;;;;;;;;;;;;;29.08;38.42;101549.25;5051631;28;96778;-88
2021/07/07 12:33:56;;;;;;;;;;;;;;;28.63;39.59;101549.25;5047454;28;99134;-88
2021/07/07 12:36:24;;;;;;;;;;;;;;;29.52;37.68;101550.22;5041629;27;100678;-88
2021/07/07 12:38:51;;;;;;;;;;;;;;;29.80;37.87;101563.72;5044931;27;96641;-88
2021/07/07 12:41:20;;;;;;;;;;;;;;;29.90;36.70;101559.84;5038950;27;97772;-88
2021/07/07 12:46:29;;;;;;;;;;;;;;;29.48;37.15;101553.41;5046260;27;96726;-87
2021/07/07 12:48:58;;;;;;;;;;;;;;;29.36;38.05;101554.66;5038665;27;98032;-86
2021/07/07 12:51:25;;;;;;;;;;;;;;;29.61;36.79;101554.69;5048529;27;96988;-86
2021/07/07 12:54:04;;;;;;;;;;;;;;;29.96;36.23;101550.22;5049285;28;97727;-86
2021/07/07 13:02:05;;;;;;;;;;;;;;;30.15;36.02;101552.72;5042310;27;97684;-87
2021/07/07 13:09:57;;;;;;;;;;;;;;;30.08;35.09;101563.41;5045239;27;98234;-87
2021/07/07 13:12:30;;;;;;;;;;;;;;;30.46;34.18;101553.03;5055140;28;97397;-87
2021/07/07 13:18:18;;;;;;;;;;;;;;;30.12;35.38;101569.41;5131818;27;96800;-88
2021/07/07 13:20:58;;;;;;;;;;;;;;;30.05;35.46;101573.78;5104342;27;96962;-87
2021/07/07 13:23:28;;;;;;;;;;;;;;;29.40;37.60;101567.81;5101348;27;98871;-87
2021/07/07 13:31:31;;;;;;;;;;;;;;;28.60;38.68;101557.72;5109443;27;96626;-86
2021/07/07 13:33:57;;;;;;;;;;;;;;;28.75;39.64;101567.09;5118855;27;97337;-87
2021/07/07 13:36:29;;;;;;;;;;;;;;;28.66;39.68;101561.69;5121471;27;99202;-87
2021/07/07 13:39:14;;;;;;;;;;;;;;;28.55;38.65;101543.75;5116349;27;97557;-88
2021/07/07 13:41:44;;;;;;;;;;;;;;;29.20;37.26;101555.34;5115742;27;96924;-89
2021/07/07 13:44:13;;;;;;;;;;;;;;;29.79;37.24;101559.28;5108079;27;99119;-90
2021/07/07 13:46:39;;;;;;;;;;;;;;;29.75;37.33;101564.16;5105091;27;98867;-90
2021/07/07 13:49:09;;;;;;;;;;;;;;;30.16;36.42;101559.88;5108350;27;96964;-88
2021/07/07 13:51:45;;;;;;;;;;;;;;;31.10;34.54;101560.63;5108830;27;96886;-87
2021/07/07 13:54:20;;;;;;;;;;;;;;;30.83;34.77;101558.16;5101919;27;98982;-88
2021/07/07 13:56:47;;;;;;;;;;;;;;;30.72;35.55;101561.19;5102298;27;98471;-88
2021/07/07 13:59:13;;;;;;;;;;;;;;;30.21;36.07;101562.09;5105066;27;97297;-86
2021/07/07 14:01:46;;;;;;;;;;;;;;;30.71;35.03;101551.28;5099320;27;96953;-87
2021/07/07 14:04:14;;;;;;;;;;;;;;;31.56;33.71;101555.53;5111589;27;99258;-86
2021/07/07 14:06:44;;;;;;;;;;;;;;;31.69;33.82;101555.91;5113782;27;98026;-85
2021/07/07 14:09:17;;;;;;;;;;;;;;;32.25;32.81;101554.94;5111008;27;96694;-88
2021/07/07 14:11:44;;;;;;;;;;;;;;;32.31;32.17;101550.63;5110157;27;96672;-87
2021/07/07 14:14:11;;;;;;;;;;;;;;;34.06;30.76;101555.28;5112464;27;98098;-92
2021/07/07 14:16:39;;;;;;;;;;;;;;;33.98;29.50;101553.47;5107551;27;97643;-88
2021/07/07 14:19:05;;;;;;;;;;;;;;;32.43;32.74;101549.22;5107464;27;97519;-88
2021/07/07 14:21:40;;;;;;;;;;;;;;;31.21;35.12;101554.84;5109004;27;97107;-88
2021/07/07 14:24:09;;;;;;;;;;;;;;;33.49;30.98;101550.31;5107573;27;97670;-87
2021/07/07 14:26:39;;;;;;;;;;;;;;;35.68;27.35;101547.50;5115913;27;96906;-88
2021/07/07 14:29:16;;;;;;;;;;;;;;;39.74;22.94;101544.06;5098338;27;96625;-89
2021/07/07 14:31:46;;;;;;;;;;;;;;;38.75;22.38;101546.63;5097755;27;97109;-87
2021/07/07 14:34:17;;;;;;;;;;;;;;;34.96;27.80;101544.91;5098363;27;96892;-89
2021/07/07 14:36:49;;;;;;;;;;;;;;;32.89;31.38;101547.47;5096001;27;97532;-89
2021/07/07 14:39:18;;;;;;;;;;;;;;;31.67;33.01;101536.94;5094981;27;96459;-87